createdAt,value
2022-09-03T00:02:20.768Z,53.33
2022-09-03T00:05:05.254Z,57.57
2022-09-03T00:08:05.885Z,60.67
2022-09-03T00:10:53.375Z,59.27
2022-09-03T00:13:42.962Z,57.40
2022-09-03T00:16:22.848Z,59.17
2022-09-03T00:18:58.924Z,54.87
2022-09-03T00:21:50.068Z,56.90
2022-09-03T00:24:30.872Z,53.33
2022-09-03T00:27:08.030Z,56.27
2022-09-03T00:30:01.457Z,56.13
2022-09-03T00:33:13.849Z,54.07
2022-09-03T00:36:03.517Z,52.83
2022-09-03T00:38:37.809Z,57.57
2022-09-03T00:41:24.298Z,55.43
2022-09-03T00:44:14.860Z,56.63
2022-09-03T00:47:00.344Z,55.60
2022-09-03T00:49:37.588Z,53.93
2022-09-03T00:52:26.790Z,56.87
2022-09-03T00:55:31.898Z,55.87
2022-09-03T00:58:25.240Z,57.60
2022-09-03T01:00:57.006Z,55.10
2022-09-03T01:03:51.266Z,54.50
2022-09-03T01:06:55.663Z,57.50
2022-09-03T01:09:53.900Z,56.40
2022-09-03T01:12:42.069Z,55.13
2022-09-03T01:15:27.103Z,56.07
2022-09-03T01:18:19.088Z,57.97
2022-09-03T01:21:13.545Z,57.20
2022-09-03T01:24:36.675Z,55.40
2022-09-03T01:27:58.528Z,56.97
2022-09-03T01:30:34.384Z,57.67
2022-09-03T01:33:24.285Z,56.90
2022-09-03T01:36:24.684Z,57.63
2022-09-03T01:39:06.911Z,58.63
2022-09-03T01:42:12.525Z,56.40
2022-09-03T01:45:06.365Z,56.78
2022-09-03T01:48:06.251Z,53.77
2022-09-03T01:51:19.534Z,53.37
2022-09-03T01:54:21.229Z,59.03
2022-09-03T01:57:35.212Z,58.77
2022-09-03T02:00:13.262Z,57.33
2022-09-03T02:02:49.170Z,54.33
2022-09-03T02:05:28.174Z,55.80
2022-09-03T02:08:02.903Z,54.63
2022-09-03T02:10:45.711Z,52.53
2022-09-03T02:13:24.679Z,56.50
2022-09-03T02:16:00.181Z,55.43
2022-09-03T02:18:39.072Z,55.73
2022-09-03T02:21:10.833Z,55.87
2022-09-03T02:23:42.712Z,53.57
2022-09-03T02:26:18.694Z,53.97
2022-09-03T02:28:52.018Z,57.47
2022-09-03T02:31:24.225Z,55.10
2022-09-03T02:33:57.890Z,54.33
2022-09-03T02:36:36.116Z,55.38
2022-09-03T02:39:07.756Z,56.90
2022-09-03T02:41:39.627Z,55.37
2022-09-03T02:44:23.952Z,54.17
2022-09-03T02:47:00.697Z,56.30
2022-09-03T02:49:32.954Z,52.90
2022-09-03T02:52:09.844Z,56.00
2022-09-03T02:54:41.844Z,54.97
2022-09-03T02:57:15.817Z,59.27
2022-09-03T02:59:47.412Z,59.92
2022-09-03T03:02:19.072Z,56.00
2022-09-03T03:04:50.869Z,52.30
2022-09-03T03:07:22.568Z,65.60
2022-09-03T03:09:54.493Z,54.47
2022-09-03T03:12:26.464Z,55.30
2022-09-03T03:14:58.072Z,52.83
2022-09-03T03:17:29.825Z,52.47
2022-09-03T03:20:03.681Z,53.03
2022-09-03T03:22:35.713Z,53.53
2022-09-03T03:25:07.913Z,56.90
2022-09-03T03:27:41.877Z,58.27
2022-09-03T03:30:14.176Z,60.10
2022-09-03T03:32:45.814Z,54.20
2022-09-03T03:35:17.465Z,54.60
2022-09-03T03:37:49.104Z,53.03
2022-09-03T03:40:20.728Z,62.83
2022-09-03T03:42:54.613Z,56.27
2022-09-03T03:45:26.375Z,66.35
2022-09-03T03:47:59.321Z,60.97
2022-09-03T03:50:33.881Z,59.00
2022-09-03T03:53:05.468Z,63.80
2022-09-03T03:55:39.715Z,60.63
2022-09-03T03:58:11.377Z,70.35
2022-09-03T04:00:42.990Z,63.70
2022-09-03T04:03:14.681Z,65.03
2022-09-03T04:05:57.695Z,60.63
2022-09-03T04:08:29.774Z,61.57
2022-09-03T04:11:03.100Z,65.27
2022-09-03T04:13:37.456Z,62.70
2022-09-03T04:16:18.547Z,67.45
2022-09-03T04:18:52.298Z,64.47
2022-09-03T04:21:29.386Z,65.60
2022-09-03T04:24:00.980Z,65.63
2022-09-03T04:26:33.466Z,69.40
2022-09-03T04:29:08.176Z,66.30
2022-09-03T04:32:01.710Z,67.73
2022-09-03T04:34:33.396Z,67.20
2022-09-03T04:37:05.021Z,67.83
2022-09-03T04:39:36.690Z,68.23
2022-09-03T04:42:08.263Z,67.50
2022-09-03T04:44:41.147Z,70.27
2022-09-03T04:47:15.476Z,68.63
2022-09-03T04:49:47.382Z,65.67
2022-09-03T04:52:19.495Z,71.33
2022-09-03T04:54:51.435Z,65.23
2022-09-03T04:57:23.169Z,65.67
2022-09-03T04:59:55.441Z,65.50
2022-09-03T05:02:28.352Z,63.00
2022-09-03T05:05:00.018Z,65.43
2022-09-03T05:07:38.799Z,67.57
2022-09-03T05:10:16.127Z,66.93
2022-09-03T05:12:49.909Z,69.57
2022-09-03T05:15:21.591Z,71.15
2022-09-03T05:17:57.612Z,69.93
2022-09-03T05:20:30.974Z,64.63
2022-09-03T05:23:03.917Z,67.93
2022-09-03T05:25:35.992Z,72.07
2022-09-03T05:28:07.705Z,68.63
2022-09-03T05:30:39.286Z,71.73
2022-09-03T05:33:10.912Z,71.33
2022-09-03T05:35:42.521Z,74.47
2022-09-03T05:38:15.884Z,72.73
2022-09-03T05:40:47.816Z,72.50
2022-09-03T05:43:21.037Z,73.40
2022-09-03T05:45:56.840Z,77.73
2022-09-03T05:48:33.350Z,78.77
2022-09-03T05:51:10.109Z,81.60
2022-09-03T05:53:45.131Z,74.87
2022-09-03T05:56:19.266Z,74.97
2022-09-03T05:58:53.587Z,77.82
2022-09-03T06:01:28.657Z,84.40
2022-09-03T06:04:02.955Z,77.83
2022-09-03T06:06:37.178Z,76.82
2022-09-03T06:09:11.191Z,76.30
2022-09-03T06:11:42.853Z,79.50
2022-09-03T06:14:14.821Z,85.73
2022-09-03T06:16:49.813Z,82.23
2022-09-03T06:19:21.606Z,83.20
2022-09-03T06:21:55.232Z,83.30
2022-09-03T06:24:28.643Z,83.43
2022-09-03T06:27:00.427Z,78.03
2022-09-03T06:29:32.043Z,78.97
2022-09-03T06:32:05.026Z,80.03
2022-09-03T06:34:36.769Z,79.00
2022-09-03T06:37:08.421Z,79.30
2022-09-03T06:39:40.038Z,81.80
2022-09-03T06:42:12.320Z,82.93
2022-09-03T06:44:46.699Z,80.97
2022-09-03T06:47:18.348Z,82.67
2022-09-03T06:49:49.897Z,82.33
2022-09-03T06:52:22.324Z,86.03
2022-09-03T06:54:53.944Z,86.40
2022-09-03T06:57:25.578Z,6.07
2022-09-03T06:59:57.246Z,7.75
2022-09-03T07:02:28.875Z,5.95
2022-09-03T07:05:00.560Z,8.10
2022-09-03T07:07:32.490Z,6.22
2022-09-03T07:10:04.437Z,5.45
2022-09-03T07:12:37.643Z,4.82
2022-09-03T07:15:09.810Z,6.35
2022-09-03T07:17:41.413Z,7.50
2022-09-03T07:20:13.065Z,4.32
2022-09-03T07:22:44.694Z,8.13
2022-09-03T07:25:16.331Z,6.30
2022-09-03T07:27:51.148Z,6.07
2022-09-03T07:30:23.034Z,7.47
2022-09-03T07:32:55.007Z,7.72
2022-09-03T07:35:27.823Z,48.63
2022-09-03T07:38:00.737Z,117.73
2022-09-03T07:40:33.177Z,115.17
2022-09-03T07:43:06.137Z,115.73
2022-09-03T07:45:39.130Z,106.70
2022-09-03T07:48:10.785Z,110.13
2022-09-03T07:50:42.444Z,108.00
2022-09-03T07:53:17.347Z,109.17
2022-09-03T07:55:49.324Z,109.60
2022-09-03T07:58:24.668Z,113.47
2022-09-03T08:00:57.750Z,112.50
2022-09-03T08:03:29.434Z,110.33
2022-09-03T08:06:06.886Z,106.57
2022-09-03T08:08:39.675Z,113.97
2022-09-03T08:11:15.964Z,110.53
2022-09-03T08:13:57.617Z,111.10
2022-09-03T08:16:34.901Z,112.10
2022-09-03T08:19:07.579Z,110.83
2022-09-03T08:21:42.722Z,110.03
2022-09-03T08:24:16.647Z,104.57
2022-09-03T08:26:52.005Z,112.70
2022-09-03T08:29:23.858Z,111.53
2022-09-03T08:31:59.736Z,112.17
2022-09-03T08:34:31.979Z,108.03
2022-09-03T08:37:03.598Z,111.47
2022-09-03T08:39:35.403Z,109.67
2022-09-03T08:42:28.647Z,110.20
2022-09-03T08:45:08.332Z,113.03
2022-09-03T08:47:43.221Z,107.87
2022-09-03T08:50:29.401Z,108.43
2022-09-03T08:53:12.256Z,104.87
2022-09-03T08:56:19.693Z,102.77
2022-09-03T08:58:51.369Z,96.20
2022-09-03T09:01:33.846Z,98.63
2022-09-03T09:04:24.809Z,103.10
2022-09-03T09:07:14.877Z,104.00
2022-09-03T09:09:54.877Z,97.77
2022-09-03T09:12:58.901Z,98.73
2022-09-03T09:15:43.141Z,91.83
2022-09-03T09:18:56.013Z,94.10
2022-09-03T09:21:30.556Z,94.77
2022-09-03T09:24:06.933Z,93.00
2022-09-03T09:26:41.781Z,93.27
2022-09-03T09:29:14.485Z,87.65
2022-09-03T09:31:46.077Z,92.97
2022-09-03T09:34:17.662Z,96.70
2022-09-03T09:36:56.319Z,95.67
2022-09-03T09:39:27.969Z,97.77
2022-09-03T09:42:10.962Z,91.67
2022-09-03T09:44:45.569Z,89.47
2022-09-03T09:47:28.771Z,92.20
2022-09-03T09:50:02.837Z,88.13
2022-09-03T09:52:34.421Z,96.05
2022-09-03T09:55:14.748Z,94.30
2022-09-03T09:57:46.443Z,101.23
2022-09-03T10:00:18.803Z,95.97
2022-09-03T10:02:54.556Z,95.87
2022-09-03T10:05:32.959Z,94.43
2022-09-03T10:08:26.072Z,95.97
2022-09-03T10:10:57.655Z,97.73
2022-09-03T10:13:41.732Z,103.50
2022-09-03T10:16:28.048Z,99.00
2022-09-03T10:19:06.470Z,100.87
2022-09-03T10:22:03.143Z,99.90
2022-09-03T10:24:59.004Z,102.20
2022-09-03T10:27:32.040Z,102.83
2022-09-03T10:30:07.735Z,100.07
2022-09-03T10:32:59.789Z,102.27
2022-09-03T10:35:35.576Z,109.23
2022-09-03T10:38:26.512Z,108.37
2022-09-03T10:41:28.926Z,106.87
2022-09-03T10:44:21.343Z,107.77
2022-09-03T10:47:14.824Z,109.60
2022-09-03T10:50:01.785Z,105.93
2022-09-03T10:53:15.174Z,109.93
2022-09-03T10:56:01.985Z,107.53
2022-09-03T10:58:52.967Z,107.83
2022-09-03T11:02:00.213Z,110.53
2022-09-03T11:04:54.981Z,108.60
2022-09-03T11:10:31.068Z,107.20
2022-09-03T11:13:09.318Z,109.40
2022-09-03T11:15:54.603Z,110.93
2022-09-03T11:18:33.854Z,117.03
2022-09-03T11:21:12.317Z,119.63
2022-09-03T11:23:47.537Z,119.83
2022-09-03T11:26:23.094Z,110.83
2022-09-03T11:29:25.320Z,115.63
2022-09-03T11:32:16.003Z,110.27
2022-09-03T11:34:54.617Z,111.83
2022-09-03T11:37:30.433Z,115.37
2022-09-03T11:40:19.347Z,109.20
2022-09-03T11:42:51.309Z,113.83
2022-09-03T11:45:30.306Z,109.53
2022-09-03T11:48:02.250Z,107.40
2022-09-03T11:50:34.563Z,108.60
2022-09-03T11:53:13.615Z,105.40
2022-09-03T11:55:55.665Z,106.67
2022-09-03T11:58:35.041Z,106.30
2022-09-03T12:01:18.797Z,108.90
2022-09-03T12:03:57.929Z,104.53
2022-09-03T12:06:43.201Z,106.17
2022-09-03T12:09:28.541Z,97.27
2022-09-03T12:12:18.949Z,101.90
2022-09-03T12:15:02.501Z,103.67
2022-09-03T12:18:12.368Z,99.43
2022-09-03T12:20:44.961Z,99.17
2022-09-03T12:23:44.738Z,101.20
2022-09-03T12:26:19.844Z,100.23
2022-09-03T12:29:00.201Z,96.77
2022-09-03T12:31:45.026Z,95.20
2022-09-03T12:34:18.856Z,96.27
2022-09-03T12:36:53.422Z,95.70
2022-09-03T12:42:25.296Z,99.30
2022-09-03T12:45:06.644Z,93.83
2022-09-03T12:47:43.266Z,90.80
2022-09-03T12:50:21.351Z,96.00
2022-09-03T12:53:03.911Z,98.00
2022-09-03T12:56:01.420Z,97.67
2022-09-03T12:58:40.022Z,98.53
2022-09-03T13:01:17.192Z,99.13
2022-09-03T13:03:54.265Z,97.13
2022-09-03T13:06:30.348Z,98.23
2022-09-03T13:09:06.461Z,95.83
2022-09-03T13:11:38.077Z,96.53
2022-09-03T13:14:14.450Z,97.20
2022-09-03T13:16:46.438Z,96.13
2022-09-03T13:19:42.387Z,95.03
2022-09-03T13:22:26.984Z,94.67
2022-09-03T13:25:17.268Z,95.27
2022-09-03T13:28:27.729Z,92.10
2022-09-03T13:31:08.670Z,96.47
2022-09-03T13:33:45.626Z,95.67
2022-09-03T13:36:21.494Z,93.13
2022-09-03T13:39:23.377Z,88.70
2022-09-03T13:42:06.036Z,91.87
2022-09-03T13:44:48.386Z,95.27
2022-09-03T13:48:15.572Z,94.77
2022-09-03T13:51:14.333Z,94.63
2022-09-03T13:53:55.584Z,91.13
2022-09-03T13:56:44.583Z,90.50
2022-09-03T13:59:29.351Z,92.87
2022-09-03T14:02:19.204Z,88.87
2022-09-03T14:05:10.169Z,91.97
2022-09-03T14:08:09.375Z,89.70
2022-09-03T14:11:16.557Z,88.30
2022-09-03T14:14:07.311Z,95.07
2022-09-03T14:16:45.322Z,92.00
2022-09-03T14:19:29.053Z,93.73
2022-09-03T14:22:09.835Z,90.90
2022-09-03T14:24:49.202Z,90.40
2022-09-03T14:27:39.003Z,93.60
2022-09-03T14:30:16.513Z,88.77
2022-09-03T14:32:56.913Z,90.97
2022-09-03T14:36:03.452Z,92.80
2022-09-03T14:38:46.596Z,89.90
2022-09-03T14:41:33.028Z,94.00
2022-09-03T14:44:17.239Z,95.50
2022-09-03T14:47:21.264Z,95.43
2022-09-03T14:50:19.771Z,92.63
2022-09-03T14:53:29.392Z,95.10
2022-09-03T14:56:21.941Z,96.27
2022-09-03T14:59:12.601Z,96.03
2022-09-03T15:01:50.267Z,91.70
2022-09-03T15:04:51.498Z,90.50
2022-09-03T15:07:49.661Z,87.40
2022-09-03T15:10:45.034Z,90.27
2022-09-03T15:13:19.112Z,88.00
2022-09-03T15:16:09.119Z,92.00
2022-09-03T15:19:16.365Z,90.33
2022-09-03T15:22:11.151Z,88.67
2022-09-03T15:25:09.627Z,92.40
2022-09-03T15:28:23.065Z,92.27
2022-09-03T15:31:02.935Z,90.87
2022-09-03T15:33:51.578Z,89.83
2022-09-03T15:36:27.428Z,88.53
2022-09-03T15:39:24.762Z,89.57
2022-09-03T15:42:04.717Z,88.07
2022-09-03T15:44:48.266Z,88.07
2022-09-03T15:47:50.516Z,90.33
2022-09-03T15:50:57.127Z,87.30
2022-09-03T15:53:36.492Z,87.80
2022-09-03T15:56:15.345Z,92.63
2022-09-03T15:59:03.592Z,90.07
2022-09-03T16:01:46.320Z,96.33
2022-09-03T16:04:27.664Z,94.03
2022-09-03T16:07:24.154Z,88.40
2022-09-03T16:10:25.299Z,96.80
2022-09-03T16:13:41.777Z,94.53
2022-09-03T16:16:24.452Z,90.17
2022-09-03T16:19:23.727Z,93.63
2022-09-03T16:22:34.246Z,89.13
2022-09-03T16:25:17.865Z,87.17
2022-09-03T16:28:10.289Z,89.00
2022-09-03T16:33:45.062Z,91.95
2022-09-03T16:36:32.176Z,87.37
2022-09-03T16:39:31.580Z,87.57
2022-09-03T16:42:26.161Z,88.63
2022-09-03T16:45:09.535Z,85.22
2022-09-03T16:47:59.593Z,88.47
2022-09-03T16:50:58.027Z,86.33
2022-09-03T16:53:35.507Z,90.83
2022-09-03T16:56:14.049Z,83.90
2022-09-03T16:58:52.881Z,88.43
2022-09-03T17:01:52.431Z,85.50
2022-09-03T17:04:28.784Z,89.13
2022-09-03T17:07:38.990Z,85.37
2022-09-03T17:10:44.627Z,88.80
2022-09-03T17:13:25.016Z,85.13
2022-09-03T17:16:26.726Z,90.20
2022-09-03T17:19:23.096Z,87.63
2022-09-03T17:22:35.779Z,89.90
2022-09-03T17:25:39.328Z,88.57
2022-09-03T17:28:24.843Z,84.37
2022-09-03T17:30:56.855Z,88.67
2022-09-03T17:34:13.450Z,88.47
2022-09-03T17:37:24.033Z,86.10
2022-09-03T17:40:03.710Z,84.97
2022-09-03T17:42:56.701Z,88.80
2022-09-03T17:45:53.008Z,85.03
2022-09-03T17:48:42.576Z,84.23
2022-09-03T17:51:51.895Z,86.70
2022-09-03T17:54:23.360Z,85.70
2022-09-03T17:57:05.515Z,79.20
2022-09-03T17:59:56.025Z,84.30
2022-09-03T18:02:36.233Z,82.83
2022-09-03T18:05:18.405Z,79.93
2022-09-03T18:08:00.802Z,80.40
2022-09-03T18:10:46.637Z,77.90
2022-09-03T18:13:47.371Z,76.20
2022-09-03T18:16:31.693Z,77.43
2022-09-03T18:19:30.714Z,76.28
2022-09-03T18:22:24.497Z,75.10
2022-09-03T18:25:18.881Z,77.40
2022-09-03T18:28:29.450Z,71.17
2022-09-03T18:31:19.640Z,73.97
2022-09-03T18:34:09.861Z,70.53
2022-09-03T18:37:00.118Z,73.20
2022-09-03T18:39:50.478Z,74.13
2022-09-03T18:43:09.368Z,72.27
2022-09-03T18:49:45.565Z,68.10
2022-09-03T18:52:44.963Z,71.93
2022-09-03T18:55:56.589Z,68.30
2022-09-03T18:59:13.237Z,70.47
2022-09-03T19:02:03.629Z,71.40
2022-09-03T19:05:15.188Z,187.83
2022-09-03T19:08:46.899Z,65.20
2022-09-03T19:12:05.070Z,70.13
2022-09-03T19:15:17.319Z,188.50
2022-09-03T19:18:46.292Z,72.17
2022-09-03T19:21:59.928Z,69.70
2022-09-03T19:24:50.720Z,70.57
2022-09-03T19:28:21.481Z,66.23
2022-09-03T19:31:45.246Z,69.13
2022-09-03T19:35:04.539Z,67.10
2022-09-03T19:38:06.930Z,65.27
2022-09-03T19:41:19.309Z,65.60
2022-09-03T19:44:45.889Z,68.57
2022-09-03T19:47:58.975Z,66.23
2022-09-03T19:50:59.200Z,68.37
2022-09-03T19:53:52.289Z,66.33
2022-09-03T19:56:47.030Z,68.27
2022-09-03T19:59:39.615Z,67.32
2022-09-03T20:02:29.908Z,65.63
2022-09-03T20:05:25.599Z,61.63
2022-09-03T20:08:17.043Z,69.60
2022-09-03T20:10:52.301Z,67.07
2022-09-03T20:13:24.048Z,68.67
2022-09-03T20:16:13.712Z,68.33
2022-09-03T20:19:40.759Z,65.47
2022-09-03T20:22:30.875Z,70.20
2022-09-03T20:25:18.076Z,66.07
2022-09-03T20:27:55.824Z,70.47
2022-09-03T20:30:43.141Z,69.67
2022-09-03T20:33:22.890Z,69.03
2022-09-03T20:36:14.582Z,66.70
2022-09-03T20:39:04.272Z,64.80
2022-09-03T20:41:57.809Z,67.03
2022-09-03T20:44:52.628Z,70.60
2022-09-03T20:47:28.125Z,68.38
2022-09-03T20:50:46.563Z,65.40
2022-09-03T20:53:33.206Z,64.63
2022-09-03T20:56:27.416Z,67.27
2022-09-03T20:59:08.108Z,63.90
2022-09-03T21:01:52.266Z,66.83
2022-09-03T21:04:33.268Z,66.30
2022-09-03T21:07:29.258Z,65.60
2022-09-03T21:10:17.653Z,65.90
2022-09-03T21:13:33.180Z,64.27
2022-09-03T21:16:20.305Z,68.80
2022-09-03T21:19:13.925Z,63.53
2022-09-03T21:22:12.533Z,69.03
2022-09-03T21:24:56.956Z,65.53
2022-09-03T21:27:36.249Z,66.38
2022-09-03T21:30:13.175Z,62.73
2022-09-03T21:32:51.613Z,64.37
2022-09-03T21:35:42.852Z,68.63
2022-09-03T21:38:20.550Z,69.90
2022-09-03T21:41:01.396Z,67.40
2022-09-03T21:43:45.303Z,63.60
2022-09-03T21:46:25.542Z,64.75
2022-09-03T21:49:03.180Z,65.37
2022-09-03T21:51:44.307Z,64.50
2022-09-03T21:54:29.672Z,70.23
2022-09-03T21:57:24.928Z,69.43
2022-09-03T22:02:32.813Z,67.97
2022-09-03T22:05:05.539Z,64.60
2022-09-03T22:07:37.081Z,65.17
2022-09-03T22:10:18.015Z,78.13
2022-09-03T22:13:02.644Z,66.47
2022-09-03T22:15:35.503Z,66.37
2022-09-03T22:18:16.399Z,65.50
2022-09-03T22:20:55.973Z,62.03
2022-09-03T22:23:42.894Z,65.83
2022-09-03T22:26:27.785Z,64.97
2022-09-03T22:34:41.921Z,69.90
2022-09-03T22:37:47.304Z,68.10
2022-09-03T22:40:52.142Z,67.40
2022-09-03T22:43:38.574Z,65.07
2022-09-03T22:46:14.481Z,64.83
2022-09-03T22:49:14.216Z,67.40
2022-09-03T22:52:20.881Z,64.27
2022-09-03T22:55:18.633Z,67.93
2022-09-03T22:58:02.617Z,69.93
2022-09-03T23:00:41.160Z,66.80
2022-09-03T23:03:24.250Z,63.53
2022-09-03T23:06:03.296Z,66.27
2022-09-03T23:08:49.760Z,69.03
2022-09-03T23:11:26.737Z,62.87
2022-09-03T23:14:04.730Z,66.47
2022-09-03T23:16:53.634Z,64.63
2022-09-03T23:19:41.174Z,65.33
2022-09-03T23:22:26.069Z,60.93
2022-09-03T23:27:50.497Z,65.93
2022-09-03T23:30:22.177Z,64.73
2022-09-03T23:32:57.997Z,67.33
2022-09-03T23:35:34.942Z,65.07
2022-09-03T23:38:33.368Z,68.07
2022-09-03T23:41:15.031Z,66.57
2022-09-03T23:44:18.958Z,66.17
2022-09-03T23:47:37.524Z,65.67
2022-09-03T23:50:33.791Z,65.00
2022-09-03T23:53:14.937Z,63.07
2022-09-03T23:56:14.777Z,65.80
2022-09-03T23:59:23.750Z,66.77
